METAR Data
IDs: Format: Raw Decoded Include TAF

Data at: 0019 UTC 25 Apr 2019

METAR for:KAMW (Ames Muni, IA, US)
Text:KAMW 242353Z AUTO 19006KT 10SM CLR 19/09 A2978 RMK AO2 SLP081 T01940089 10206 20178 58016
Temperature: 19.4°C ( 67°F)
Dewpoint: 8.9°C ( 48°F) [RH = 51%]
Pressure (altimeter):29.78 inches Hg (1008.5 mb) [Sea level pressure: 1008.1 mb]
Winds:from the S (190 degrees) at 7 MPH (6 knots; 3.1 m/s)
Visibility:10 or more sm (16+ km)
Ceiling:at least 12,000 feet AGL
Clouds:sky clear below 12,000 feet AGL
QC Flag:automated observation with no human augmentation